Time;durP1;ratioP1;P1;durP2;ratioP2;P2;SDS_P1;SDS_P2;PMS_P1;PMS_P2;Temp;Humidity;BMP_temperature;BMP_pressure;BME280_temperature;BME280_humidity;BME280_pressure;Samples;Min_cycle;Max_cycle;Signal;HPM_P1;HPM_P2
2022/12/12 00:00:35;;;;;;;27.43;19.07;;;-1.80;89.10;;;-2.57;82.83;97203.59;5107915;28;20437;-75
2022/12/12 00:03:03;;;;;;;34.07;20.57;;;-1.90;88.30;;;-2.44;82.81;97205.03;5088061;28;20460;-75
2022/12/12 00:05:30;;;;;;;29.70;19.77;;;-1.80;89.00;;;-2.51;82.35;97182.78;5079197;28;20448;-76
2022/12/12 00:07:57;;;;;;;25.70;17.30;;;-1.80;88.10;;;-2.67;81.30;97202.84;5095019;28;20465;-75
2022/12/12 00:10:26;;;;;;;31.37;19.40;;;-1.90;84.80;;;-2.57;81.38;97194.84;5099540;28;20475;-75
2022/12/12 00:12:54;;;;;;;29.30;17.97;;;-1.90;84.60;;;-2.57;80.52;97166.56;5079807;28;20453;-75
2022/12/12 00:15:22;;;;;;;29.87;17.13;;;-1.80;84.60;;;-2.57;80.91;97200.13;5083522;28;20461;-78
2022/12/12 00:17:49;;;;;;;32.43;18.90;;;-1.80;84.40;;;-2.59;81.61;97202.91;5093126;28;20782;-74
2022/12/12 00:20:16;;;;;;;31.17;17.43;;;-1.90;84.80;;;-2.62;80.75;97187.34;5081878;28;20483;-75
2022/12/12 00:22:44;;;;;;;30.17;19.10;;;-1.90;83.50;;;-2.59;80.86;97210.84;5086065;28;20459;-76
2022/12/12 00:25:11;;;;;;;28.20;18.17;;;-1.80;83.60;;;-2.72;80.53;97184.81;5086481;28;20467;-75
2022/12/12 00:27:39;;;;;;;28.87;17.27;;;-1.90;82.80;;;-3.02;80.77;97147.19;5083562;28;20472;-75
2022/12/12 00:30:10;;;;;;;27.90;18.17;;;-1.90;82.80;;;-2.64;80.66;97193.78;5076043;28;20456;-74
2022/12/12 00:32:37;;;;;;;29.67;17.50;;;-1.90;83.30;;;-2.68;81.02;97211.75;5077455;28;20577;-73
2022/12/12 00:35:07;;;;;;;29.93;18.53;;;-1.90;83.50;;;-2.56;81.56;97220.31;5076708;28;20503;-75
2022/12/12 00:37:35;;;;;;;29.33;18.40;;;-1.90;84.50;;;-2.41;81.05;97204.72;5102482;28;20515;-75
2022/12/12 00:40:03;;;;;;;31.93;18.80;;;-1.80;84.80;;;-2.60;80.89;97195.97;5089296;28;20463;-76
2022/12/12 00:42:30;;;;;;;28.73;17.27;;;-1.80;83.40;;;-2.62;80.84;97211.16;5085479;28;20989;-76
2022/12/12 00:44:58;;;;;;;29.33;17.80;;;-1.80;83.70;;;-2.63;80.12;97198.06;5106266;28;20448;-75
2022/12/12 00:47:26;;;;;;;26.83;15.93;;;-1.80;82.60;;;-2.53;80.50;97206.78;5101326;28;20530;-74
2022/12/12 00:49:54;;;;;;;26.63;17.30;;;-1.90;82.50;;;-2.53;80.63;97217.34;5086934;28;20456;-75
2022/12/12 00:52:21;;;;;;;26.50;16.80;;;-1.90;82.90;;;-2.64;81.22;97207.84;5099928;28;20472;-74
2022/12/12 00:54:48;;;;;;;28.13;18.67;;;-1.90;83.30;;;-2.68;80.12;97169.44;5089505;28;20932;-72
2022/12/12 00:57:15;;;;;;;29.37;19.00;;;-1.80;83.90;;;-2.57;80.98;97224.75;5089343;28;20459;-74
2022/12/12 00:59:43;;;;;;;28.77;18.17;;;-1.80;83.50;;;-2.64;81.27;97213.13;5084950;28;21011;-75
2022/12/12 01:02:11;;;;;;;36.13;19.57;;;-1.90;84.10;;;-2.56;81.35;97221.13;5100273;28;20822;-76
2022/12/12 01:04:40;;;;;;;32.80;19.17;;;-1.90;84.30;;;-2.62;81.32;97194.44;5091985;28;20547;-74
2022/12/12 01:07:07;;;;;;;30.20;20.03;;;-1.80;85.60;;;-2.44;81.47;97228.84;5099338;28;20454;-76
2022/12/12 01:09:35;;;;;;;29.90;18.93;;;-1.80;84.80;;;-2.51;81.53;97217.19;5088289;28;20444;-76
2022/12/12 01:12:02;;;;;;;26.67;16.60;;;-1.80;85.30;;;-2.42;81.16;97226.88;5082610;28;20537;-75
2022/12/12 01:14:30;;;;;;;29.90;18.80;;;-1.80;84.60;;;-2.40;80.62;97227.53;5097907;28;20463;-75
2022/12/12 01:16:57;;;;;;;23.60;16.83;;;-1.80;84.00;;;-2.81;80.18;97192.78;5088246;28;20462;-75
2022/12/12 01:19:24;;;;;;;27.73;17.67;;;-1.80;83.10;;;-2.64;80.22;97234.28;5087906;28;20465;-74
2022/12/12 01:21:53;;;;;;;27.27;17.70;;;-1.80;82.50;;;-2.64;80.46;97229.00;5090316;28;20474;-73
2022/12/12 01:24:20;;;;;;;28.80;18.77;;;-1.90;83.00;;;-2.63;80.58;97198.91;5103312;28;20455;-75
2022/12/12 01:26:47;;;;;;;31.53;17.60;;;-1.90;83.80;;;-2.35;80.09;97227.94;5110165;28;20449;-73
2022/12/12 01:29:15;;;;;;;26.03;15.60;;;-1.70;83.50;;;-2.64;79.08;97165.53;5099968;28;20509;-74
2022/12/12 01:31:42;;;;;;;33.47;19.57;;;-1.70;82.80;;;-2.45;79.30;97219.25;5091306;28;20548;-75
2022/12/12 01:34:09;;;;;;;30.17;18.07;;;-1.70;81.40;;;-3.23;80.69;97139.53;5085290;28;20582;-76
2022/12/12 01:36:37;;;;;;;32.43;18.17;;;-1.80;82.10;;;-2.54;80.58;97228.91;5076318;28;20462;-75
2022/12/12 01:39:05;;;;;;;30.17;19.07;;;-1.90;83.30;;;-2.44;80.43;97234.13;5100698;28;20446;-75
2022/12/12 01:41:33;;;;;;;27.70;18.10;;;-1.80;83.70;;;-2.49;80.70;97236.41;5079404;28;20497;-76
2022/12/12 01:44:01;;;;;;;29.00;18.80;;;-1.80;83.50;;;-2.40;80.54;97247.91;5095659;28;20496;-75
2022/12/12 01:46:44;;;;;;;34.33;20.50;;;-1.90;84.00;;;-2.48;80.51;97238.06;5100981;28;20492;-77
2022/12/12 01:49:23;;;;;;;29.17;19.13;;;-1.80;83.80;;;-2.38;80.54;97243.28;5082929;28;20490;-75
2022/12/12 01:51:55;;;;;;;31.20;19.70;;;-1.80;84.80;;;-2.38;80.07;97257.31;5075594;28;20599;-75
2022/12/12 01:54:28;;;;;;;27.33;17.37;;;-1.70;83.80;;;-2.46;80.68;97231.63;5090190;28;20451;-75
2022/12/12 01:56:59;;;;;;;31.03;20.47;;;-1.70;84.20;;;-2.71;80.62;97194.38;5073577;28;20477;-74
2022/12/12 01:59:27;;;;;;;29.10;18.30;;;-1.70;83.80;;;-2.19;79.92;97250.22;5081246;28;20461;-74
2022/12/12 02:01:55;;;;;;;30.70;20.03;;;-1.60;83.80;;;-2.33;79.83;97239.19;5080032;28;20464;-76
2022/12/12 02:04:23;;;;;;;31.30;19.97;;;-1.60;83.90;;;-2.23;80.03;97256.78;5076723;28;20481;-74
2022/12/12 02:06:52;;;;;;;31.80;20.60;;;-1.60;83.80;;;-2.33;80.24;97247.13;5082495;28;20485;-74
2022/12/12 02:09:21;;;;;;;32.60;19.07;;;-1.60;83.80;;;-2.10;80.30;97259.06;5083975;28;20554;-73
2022/12/12 02:11:51;;;;;;;30.97;19.20;;;-1.60;84.10;;;-2.16;79.97;97257.84;5080103;28;20563;-74
2022/12/12 02:14:24;;;;;;;32.47;20.43;;;-1.60;83.60;;;-2.15;80.11;97254.22;5082497;28;20953;-75
2022/12/12 02:17:20;;;;;;;30.30;19.87;;;-1.60;84.20;;;-2.37;80.28;97266.91;5080508;28;20457;-74
2022/12/12 02:20:27;;;;;;;29.47;18.50;;;-1.60;83.00;;;-2.41;80.57;97260.28;5079137;28;20503;-75
2022/12/12 02:23:30;;;;;;;24.43;16.60;;;-1.70;83.10;;;-2.53;80.72;97261.47;5070635;28;20703;-75
2022/12/12 02:26:47;;;;;;;26.57;18.53;;;-1.80;82.80;;;-2.58;79.94;97231.03;5073028;28;20445;-76
2022/12/12 02:30:09;;;;;;;29.70;19.60;;;-1.70;83.30;;;-2.60;80.64;97256.81;5088093;28;20469;-75
2022/12/12 02:33:06;;;;;;;28.90;19.50;;;-1.80;83.10;;;-2.56;81.65;97267.94;5082479;28;20553;-76
2022/12/12 02:35:46;;;;;;;31.77;20.63;;;-1.90;84.10;;;-2.73;81.74;97256.34;5082447;28;20451;-75
2022/12/12 02:38:28;;;;;;;31.97;20.10;;;-1.90;84.20;;;-2.69;81.58;97273.56;5080190;28;20949;-74
2022/12/12 02:41:07;;;;;;;32.20;19.93;;;-1.90;84.60;;;-2.90;81.47;97232.38;5082511;28;20461;-74
2022/12/12 02:43:42;;;;;;;35.07;21.37;;;-1.90;85.00;;;-2.71;82.18;97267.59;5089274;28;20518;-74
2022/12/12 02:46:16;;;;;;;35.27;21.50;;;-2.00;85.30;;;-2.56;81.40;97258.16;5095549;28;20452;-74
2022/12/12 02:48:50;;;;;;;35.43;21.27;;;-1.90;86.20;;;-2.71;81.70;97265.81;5083938;28;20445;-72
2022/12/12 02:51:19;;;;;;;33.60;20.97;;;-1.90;85.10;;;-3.00;81.89;97213.09;5077382;28;20470;-74
2022/12/12 02:53:46;;;;;;;35.87;19.73;;;-2.00;85.30;;;-2.83;82.25;97266.97;5099429;27;20506;-74
2022/12/12 02:56:54;;;;;;;36.73;22.00;;;-2.00;85.30;;;-2.75;82.22;97268.88;5082662;28;20468;-74
2022/12/12 02:59:29;;;;;;;36.07;21.10;;;-2.00;86.00;;;-2.85;82.42;97248.63;5113190;27;21001;-73
2022/12/12 03:02:35;;;;;;;31.20;19.93;;;-2.00;86.50;;;-2.54;81.68;97259.81;5075863;28;20848;-75
2022/12/12 03:08:40;;;;;;;28.30;20.20;;;-1.80;86.20;;;-2.39;81.17;97249.56;5084359;28;20439;-74
2022/12/12 03:11:11;;;;;;;31.43;20.67;;;-1.70;85.60;;;-2.49;81.33;97247.00;5080337;28;20464;-74
2022/12/12 03:13:48;;;;;;;35.00;22.30;;;-1.70;85.50;;;-2.58;82.31;97277.78;5084766;28;20466;-74
2022/12/12 03:16:26;;;;;;;41.20;24.07;;;-1.90;85.60;;;-2.64;82.27;97271.31;5079647;28;20584;-75
2022/12/12 03:19:00;;;;;;;33.27;20.70;;;-1.90;85.70;;;-2.71;82.24;97275.53;5088471;28;20458;-75
2022/12/12 03:21:39;;;;;;;33.07;20.80;;;-1.90;86.00;;;-2.71;82.22;97259.66;5080971;28;20457;-75
2022/12/12 03:24:15;;;;;;;30.10;19.90;;;-1.90;86.60;;;-2.58;81.59;97277.78;5071991;28;20525;-74
2022/12/12 03:26:47;;;;;;;34.70;21.30;;;-1.80;86.20;;;-2.99;82.24;97249.13;5090778;28;20465;-76
2022/12/12 03:29:17;;;;;;;28.80;19.10;;;-2.00;86.00;;;-2.91;82.36;97273.00;5079045;28;20524;-77
2022/12/12 03:31:51;;;;;;;31.60;20.10;;;-2.00;85.60;;;-2.78;82.31;97277.94;5088223;28;20548;-75
2022/12/12 03:34:24;;;;;;;33.00;20.43;;;-2.00;86.20;;;-3.24;81.81;97211.00;5081596;28;20892;-76
2022/12/12 03:36:58;;;;;;;34.80;21.33;;;-2.00;85.10;;;-3.29;82.52;97219.38;5079758;28;20483;-74
2022/12/12 03:39:30;;;;;;;35.20;21.73;;;-2.10;85.80;;;-2.90;83.12;97279.97;5080522;28;21091;-72
2022/12/12 03:42:08;;;;;;;35.70;22.07;;;-2.10;86.50;;;-2.65;83.03;97284.69;5087858;28;20505;-74
2022/12/12 03:44:42;;;;;;;32.00;20.10;;;-2.10;88.20;;;-2.82;82.73;97284.50;5081981;28;20456;-75
2022/12/12 03:47:14;;;;;;;37.37;21.50;;;-2.00;87.10;;;-2.76;83.22;97275.97;5093008;28;20837;-73
2022/12/12 03:49:47;;;;;;;35.00;20.20;;;-2.00;88.30;;;-3.01;84.03;97285.44;5081975;28;20467;-73
2022/12/12 03:52:23;;;;;;;31.33;21.67;;;-2.10;88.70;;;-3.04;83.44;97251.38;5082789;28;20512;-74
2022/12/12 03:54:56;;;;;;;34.77;21.37;;;-2.10;89.50;;;-2.99;84.60;97288.78;5084010;28;20445;-73
2022/12/12 03:57:32;;;;;;;34.70;22.00;;;-2.20;89.50;;;-2.91;84.60;97274.81;5084585;28;20453;-74
2022/12/12 04:00:05;;;;;;;37.93;23.50;;;-2.20;90.20;;;-2.92;84.11;97258.13;5092810;28;20448;-73
2022/12/12 04:02:41;;;;;;;36.33;23.10;;;-2.20;90.70;;;-3.04;85.16;97291.84;5084695;28;20456;-73
2022/12/12 04:05:16;;;;;;;39.60;21.93;;;-2.20;90.60;;;-3.05;85.22;97294.66;5081008;28;20436;-73
2022/12/12 04:07:49;;;;;;;34.70;22.67;;;-2.30;90.80;;;-3.07;84.96;97292.16;5083841;28;20783;-73
2022/12/12 04:13:14;;;;;;;32.50;22.33;;;-2.40;91.40;;;-2.96;84.89;97300.88;5078352;28;20491;-72
2022/12/12 04:15:56;;;;;;;33.30;22.30;;;-2.40;91.30;;;-2.88;84.77;97285.09;5081618;28;20451;-73
2022/12/12 04:18:36;;;;;;;34.67;22.80;;;-2.30;91.70;;;-2.89;84.01;97278.97;5084590;28;20460;-72
2022/12/12 04:24:17;;;;;;;34.03;21.77;;;-2.30;91.10;;;-3.39;85.37;97268.81;5120587;27;20547;-75
2022/12/12 04:26:50;;;;;;;37.73;22.40;;;-2.40;91.20;;;-3.20;86.29;97303.06;5076077;28;20448;-75
2022/12/12 04:29:37;;;;;;;37.47;24.23;;;-2.40;91.80;;;-3.07;85.92;97307.19;5086551;28;20440;-75
2022/12/12 04:32:14;;;;;;;36.90;23.47;;;-2.40;92.00;;;-3.33;86.52;97282.28;5072802;28;20488;-74
2022/12/12 04:34:49;;;;;;;45.20;25.47;;;-2.50;92.10;;;-3.24;86.46;97300.84;5073031;28;20460;-77
2022/12/12 04:37:21;;;;;;;38.50;24.03;;;-2.50;92.60;;;-3.27;86.13;97281.69;5084650;28;20455;-77
2022/12/12 04:39:54;;;;;;;46.67;26.13;;;-2.50;93.00;;;-3.34;86.47;97291.16;5082387;28;20460;-75
2022/12/12 04:42:27;;;;;;;38.27;24.87;;;-2.50;92.60;;;-3.31;86.58;97279.47;5087636;28;20463;-77
2022/12/12 04:45:07;;;;;;;40.27;23.87;;;-2.60;93.00;;;-3.33;87.06;97299.91;5081726;28;20452;-77
2022/12/12 04:47:37;;;;;;;43.97;25.17;;;-2.60;92.90;;;-3.21;86.33;97306.69;5091388;28;20444;-75
2022/12/12 04:50:07;;;;;;;43.47;25.63;;;-2.60;93.50;;;-3.24;86.58;97301.69;5077225;28;20479;-74
2022/12/12 04:52:35;;;;;;;42.10;24.00;;;-2.60;93.60;;;-3.44;87.62;97307.03;5081158;28;20468;-75
2022/12/12 04:55:10;;;;;;;42.83;23.83;;;-2.60;93.40;;;-3.42;87.34;97304.25;5094752;28;20449;-75
2022/12/12 04:57:42;;;;;;;40.17;23.93;;;-2.70;94.10;;;-3.41;87.53;97308.56;5084697;28;20456;-75
2022/12/12 05:00:13;;;;;;;38.27;24.03;;;-2.70;94.10;;;-3.27;87.46;97309.91;5088067;28;20451;-75
2022/12/12 05:02:49;;;;;;;35.70;23.83;;;-2.60;95.10;;;-3.14;87.04;97313.03;5092119;28;20490;-75
2022/12/12 05:05:22;;;;;;;40.77;24.90;;;-2.60;95.30;;;-3.15;86.98;97321.97;5076292;28;20851;-75
2022/12/12 05:07:54;;;;;;;46.23;26.07;;;-2.50;94.80;;;-3.25;86.83;97294.75;5088787;28;20528;-75
2022/12/12 05:10:24;;;;;;;44.50;25.40;;;-2.50;94.80;;;-3.27;86.83;97315.19;5087215;28;20467;-75
2022/12/12 05:12:57;;;;;;;39.83;26.07;;;-2.50;93.90;;;-3.33;87.56;97323.69;5082849;28;20473;-74
2022/12/12 05:15:25;;;;;;;43.93;25.40;;;-2.60;94.00;;;-3.42;87.49;97315.66;5077986;28;20451;-73
2022/12/12 05:18:00;;;;;;;41.30;26.50;;;-2.70;94.10;;;-3.34;87.39;97316.75;5087618;28;20445;-74
2022/12/12 05:20:27;;;;;;;43.33;25.17;;;-2.60;95.60;;;-3.46;88.09;97322.22;5081448;28;20460;-75
2022/12/12 05:22:54;;;;;;;44.13;25.43;;;-2.70;94.50;;;-3.49;87.58;97327.78;5119278;27;20457;-74
2022/12/12 05:25:22;;;;;;;45.63;27.23;;;-2.70;94.50;;;-3.47;88.03;97328.47;5085733;28;20504;-75
2022/12/12 05:27:50;;;;;;;37.67;24.37;;;-2.80;94.80;;;-3.32;87.57;97333.28;5086462;28;20464;-74
2022/12/12 05:30:17;;;;;;;47.00;26.10;;;-2.80;95.70;;;-3.49;87.35;97330.41;5071133;28;20509;-73
2022/12/12 05:32:44;;;;;;;44.53;26.10;;;-2.80;95.50;;;-3.62;87.96;97325.47;5079889;28;20865;-76
2022/12/12 05:35:12;;;;;;;44.50;26.60;;;-2.80;95.70;;;-3.37;87.75;97336.34;5094505;28;20461;-75
2022/12/12 05:37:39;;;;;;;49.00;28.70;;;-2.80;96.80;;;-3.80;87.77;97317.44;5070568;28;20451;-73
2022/12/12 05:40:09;;;;;;;45.67;25.50;;;-2.90;95.60;;;-3.63;88.12;97338.78;5080726;28;20463;-72
2022/12/12 05:42:38;;;;;;;49.73;26.67;;;-2.90;95.90;;;-3.74;88.36;97343.25;5076897;28;20467;-72
2022/12/12 05:45:08;;;;;;;39.00;25.30;;;-3.00;96.10;;;-3.85;88.97;97346.06;5091457;28;20934;-71
2022/12/12 05:47:35;;;;;;;39.37;25.40;;;-3.00;96.60;;;-3.82;88.37;97335.22;5109181;28;20518;-73
2022/12/12 05:50:03;;;;;;;46.57;25.93;;;-3.10;96.90;;;-3.78;87.88;97330.50;5085270;28;21072;-71
2022/12/12 05:52:30;;;;;;;43.27;25.90;;;-3.10;97.30;;;-3.62;87.62;97345.75;5083058;28;20473;-71
2022/12/12 05:54:57;;;;;;;35.93;22.47;;;-3.00;97.60;;;-3.79;87.69;97342.00;5079071;28;21036;-72
2022/12/12 05:57:24;;;;;;;39.20;23.97;;;-3.10;95.70;;;-3.93;87.37;97332.72;5082577;28;21075;-73
2022/12/12 05:59:53;;;;;;;35.07;21.00;;;-3.10;95.00;;;-3.75;87.01;97344.22;5082964;28;20448;-73
2022/12/12 06:02:20;;;;;;;39.20;23.13;;;-3.20;95.60;;;-3.74;86.03;97347.72;5092150;28;20464;-69
2022/12/12 06:04:47;;;;;;;39.53;23.60;;;-3.20;95.10;;;-4.00;86.95;97338.56;5087112;28;20943;-70
2022/12/12 06:07:15;;;;;;;35.73;22.57;;;-3.30;94.10;;;-4.09;87.55;97354.38;5082295;28;20471;-70
2022/12/12 06:09:42;;;;;;;41.03;25.17;;;-3.50;94.30;;;-4.16;87.30;97351.50;5076789;28;20459;-70
2022/12/12 06:12:09;;;;;;;38.53;22.83;;;-3.60;94.80;;;-4.15;87.65;97355.81;5076036;28;20512;-71
2022/12/12 06:14:39;;;;;;;39.73;23.90;;;-3.60;96.30;;;-4.21;87.44;97364.25;5078300;28;20976;-69
2022/12/12 06:17:07;;;;;;;45.93;25.07;;;-3.60;96.00;;;-4.32;88.80;97355.53;5055672;28;20754;-70
2022/12/12 06:19:34;;;;;;;36.97;23.53;;;-3.60;96.80;;;-4.29;88.75;97360.50;5068474;28;20461;-73
2022/12/12 06:22:02;;;;;;;47.37;25.30;;;-3.70;97.60;;;-4.48;89.20;97339.38;5078720;28;20463;-70
2022/12/12 06:24:29;;;;;;;47.07;26.90;;;-3.70;98.20;;;-4.46;89.01;97358.56;5081629;28;21555;-68
2022/12/12 06:26:56;;;;;;;44.57;26.87;;;-3.70;98.70;;;-4.33;89.33;97359.09;5081871;28;20448;-69
2022/12/12 06:29:24;;;;;;;40.67;26.17;;;-3.70;99.40;;;-4.52;89.93;97349.38;5073665;28;20460;-68
2022/12/12 06:31:51;;;;;;;45.00;26.70;;;-3.80;99.90;;;-4.46;89.52;97358.56;5082284;28;20942;-69
2022/12/12 06:34:20;;;;;;;42.97;25.53;;;-3.80;99.90;;;-4.36;89.88;97364.66;5081076;28;20503;-70
2022/12/12 06:36:47;;;;;;;44.87;24.10;;;-3.80;99.90;;;-4.61;89.54;97329.94;5074176;28;20443;-70
2022/12/12 06:39:14;;;;;;;44.90;25.30;;;-3.70;99.90;;;-4.37;89.50;97363.00;5103683;27;20450;-70
2022/12/12 06:41:41;;;;;;;40.70;23.87;;;-3.80;99.90;;;-4.39;88.95;97364.94;5071522;28;20528;-69
2022/12/12 06:44:09;;;;;;;41.83;24.13;;;-3.80;99.90;;;-4.06;89.29;97365.50;5108419;27;20809;-70
2022/12/12 06:46:36;;;;;;;49.07;26.60;;;-3.60;99.90;;;-4.19;88.21;97371.06;5072815;28;20465;-70
2022/12/12 06:49:08;;;;;;;42.07;23.97;;;-3.60;99.90;;;-4.24;89.07;97362.75;5075504;28;20456;-72
2022/12/12 06:51:42;;;;;;;37.70;22.50;;;-3.60;99.90;;;-4.03;88.22;97361.78;5075115;28;20538;-70
2022/12/12 06:54:13;;;;;;;41.80;24.20;;;-3.50;99.90;;;-4.57;88.18;97312.03;5085025;28;20463;-69
2022/12/12 06:56:40;;;;;;;42.63;24.43;;;-3.50;99.90;;;-4.12;88.24;97377.44;5083125;28;20444;-72
2022/12/12 06:59:07;;;;;;;42.00;26.20;;;-3.60;99.90;;;-4.62;87.54;97270.28;5081964;28;20451;-72
2022/12/12 07:01:35;;;;;;;46.30;25.00;;;-3.40;99.90;;;-3.94;88.07;97389.97;5073986;28;21049;-71
2022/12/12 07:04:02;;;;;;;46.97;25.77;;;-3.40;99.90;;;-3.83;87.18;97378.44;5081866;28;20460;-71
2022/12/12 07:06:29;;;;;;;52.40;26.90;;;-3.30;99.90;;;-3.87;86.78;97383.16;5082224;28;20501;-72
2022/12/12 07:08:59;;;;;;;40.90;24.87;;;-3.30;99.90;;;-4.12;86.38;97339.69;5087872;28;20451;-71
2022/12/12 07:11:27;;;;;;;53.07;27.23;;;-3.30;98.40;;;-3.88;87.23;97389.41;5104436;27;21067;-73
2022/12/12 07:13:57;;;;;;;38.90;25.17;;;-3.40;97.40;;;-3.77;86.73;97384.97;5092036;28;20482;-71
2022/12/12 07:16:24;;;;;;;41.10;25.03;;;-3.30;98.10;;;-3.75;87.00;97391.75;5094708;28;20475;-73
2022/12/12 07:18:52;;;;;;;43.03;26.37;;;-3.30;98.30;;;-3.74;86.81;97396.06;5083427;28;20489;-72
2022/12/12 07:21:20;;;;;;;42.00;26.10;;;-3.30;97.60;;;-3.79;86.77;97387.72;5076841;28;20510;-73
2022/12/12 07:23:48;;;;;;;42.23;25.50;;;-3.20;97.70;;;-3.75;86.51;97399.66;5067561;28;20468;-74
2022/12/12 07:26:20;;;;;;;39.03;25.50;;;-3.30;97.00;;;-3.71;86.88;97403.72;5074416;28;20532;-72
2022/12/12 07:28:48;;;;;;;42.40;26.73;;;-3.20;97.20;;;-3.61;86.41;97400.22;5077068;28;20952;-72
2022/12/12 07:31:20;;;;;;;42.23;25.70;;;-3.10;97.30;;;-3.65;86.86;97401.50;5075800;28;20801;-72
2022/12/12 07:33:47;;;;;;;43.87;26.20;;;-3.10;96.50;;;-3.58;86.99;97395.50;5073676;28;21036;-73
2022/12/12 07:36:16;;;;;;;40.03;25.00;;;-3.10;97.00;;;-3.66;86.69;97408.56;5079672;28;20798;-74
2022/12/12 07:38:44;;;;;;;45.80;26.97;;;-3.10;96.50;;;-3.53;85.91;97413.56;5073122;28;20469;-73
2022/12/12 07:41:14;;;;;;;42.10;25.30;;;-3.00;96.40;;;-3.58;85.77;97406.06;5066941;28;20499;-73
2022/12/12 07:43:45;;;;;;;43.77;28.17;;;-2.90;94.50;;;-3.46;86.13;97411.19;5078874;28;20449;-73
2022/12/12 07:46:16;;;;;;;45.87;25.87;;;-2.90;93.90;;;-3.37;85.74;97418.25;5063856;28;20467;-74
2022/12/12 07:48:44;;;;;;;40.87;25.67;;;-2.80;94.10;;;-3.47;86.01;97413.00;5076976;28;20456;-72
2022/12/12 07:51:12;;;;;;;42.07;25.70;;;-2.80;93.70;;;-3.20;85.18;97429.06;5075457;28;20456;-73
2022/12/12 07:53:39;;;;;;;39.10;25.10;;;-2.70;92.90;;;-3.11;84.79;97427.38;5079450;28;20486;-74
2022/12/12 07:56:08;;;;;;;51.00;27.40;;;-2.60;93.00;;;-2.92;84.49;97427.34;5074980;28;20469;-74
2022/12/12 07:58:36;;;;;;;39.90;26.30;;;-2.40;92.60;;;-2.92;83.95;97427.34;5073401;28;20458;-74
2022/12/12 08:01:12;;;;;;;39.83;25.50;;;-2.40;91.70;;;-2.99;84.15;97431.53;5076496;28;20507;-74
2022/12/12 08:03:39;;;;;;;39.23;24.53;;;-2.40;91.00;;;-3.07;83.46;97402.34;5075797;28;20467;-72
2022/12/12 08:06:07;;;;;;;46.70;26.93;;;-2.30;90.00;;;-2.97;82.52;97407.59;5073341;28;20478;-73
2022/12/12 08:08:35;;;;;;;44.00;26.03;;;-2.30;89.10;;;-3.02;82.85;97427.38;5079632;28;20733;-73
2022/12/12 08:11:07;;;;;;;41.30;25.83;;;-2.40;88.30;;;-3.01;82.53;97423.75;5071364;28;20460;-73
2022/12/12 08:13:38;;;;;;;47.90;26.07;;;-2.40;88.80;;;-3.27;82.81;97386.53;5070771;28;20491;-74
2022/12/12 08:16:07;;;;;;;39.83;25.57;;;-2.50;89.60;;;-2.84;83.03;97434.56;5075694;28;20449;-74
2022/12/12 08:18:36;;;;;;;40.00;23.60;;;-2.40;90.50;;;-2.81;82.42;97438.69;5068833;28;20805;-74
2022/12/12 08:21:07;;;;;;;41.47;25.63;;;-2.40;90.20;;;-2.90;82.74;97430.66;5064624;28;20560;-77
2022/12/12 08:23:35;;;;;;;43.00;24.23;;;-2.40;89.90;;;-2.86;82.45;97429.41;5093422;27;20459;-73
2022/12/12 08:26:05;;;;;;;42.20;25.60;;;-2.40;89.60;;;-2.94;82.35;97441.66;5103950;27;20457;-73
2022/12/12 08:28:33;;;;;;;39.17;22.20;;;-2.40;88.70;;;-2.97;82.62;97437.50;5071686;28;20454;-74
2022/12/12 08:31:00;;;;;;;44.50;25.70;;;-2.40;88.90;;;-2.90;82.08;97437.75;5076205;28;20706;-76
2022/12/12 08:33:27;;;;;;;40.80;23.40;;;-2.50;89.00;;;-3.00;82.57;97448.38;5072469;28;21133;-74
2022/12/12 08:35:56;;;;;;;41.90;22.40;;;-2.50;88.90;;;-3.05;82.39;97447.97;5103805;27;20459;-72
2022/12/12 08:38:23;;;;;;;36.23;22.30;;;-2.50;88.60;;;-3.18;82.27;97422.69;5084071;28;20711;-73
2022/12/12 08:40:51;;;;;;;33.60;20.50;;;-2.50;88.10;;;-3.01;82.26;97449.34;5081340;28;20456;-73
2022/12/12 08:43:18;;;;;;;38.30;21.00;;;-2.50;88.40;;;-3.05;82.46;97451.44;5085306;28;20457;-74
2022/12/12 08:45:47;;;;;;;33.37;22.40;;;-2.60;88.10;;;-2.90;82.54;97451.81;5082850;28;20463;-74
2022/12/12 08:48:14;;;;;;;35.57;21.33;;;-2.50;89.80;;;-2.83;81.56;97454.72;5085339;28;20451;-73
2022/12/12 08:50:41;;;;;;;33.40;21.33;;;-2.50;89.70;;;-2.89;81.70;97450.00;5080197;28;20456;-73
2022/12/12 08:53:10;;;;;;;32.57;18.83;;;-2.40;88.60;;;-2.92;81.64;97448.50;5074778;28;20564;-73
2022/12/12 08:55:38;;;;;;;32.20;20.10;;;-2.50;88.20;;;-2.98;81.68;97459.63;5076422;28;20461;-74
2022/12/12 08:58:05;;;;;;;31.40;19.63;;;-2.50;88.10;;;-3.01;81.88;97459.91;5079040;28;20456;-75
2022/12/12 09:00:32;;;;;;;27.90;19.90;;;-2.60;88.40;;;-2.96;81.87;97468.25;5087607;28;20568;-74
2022/12/12 09:03:00;;;;;;;32.27;21.50;;;-2.60;89.30;;;-2.95;82.21;97459.38;5092705;28;20465;-74
2022/12/12 09:05:27;;;;;;;29.47;20.07;;;-2.60;89.20;;;-2.89;82.00;97468.50;5095439;28;20537;-72
2022/12/12 09:07:54;;;;;;;33.87;21.33;;;-2.50;90.00;;;-2.80;82.27;97465.00;5090062;28;20460;-72
2022/12/12 09:10:23;;;;;;;35.23;21.70;;;-2.50;90.30;;;-2.67;82.37;97469.97;5093071;28;21255;-72
2022/12/12 09:12:50;;;;;;;34.67;21.10;;;-2.40;90.40;;;-2.53;81.76;97465.19;5100886;28;20459;-73
2022/12/12 09:15:18;;;;;;;36.87;22.23;;;-2.20;90.10;;;-2.31;80.74;97474.56;5090958;28;20441;-72
2022/12/12 09:17:45;;;;;;;34.37;21.73;;;-2.00;88.90;;;-2.16;80.28;97481.03;5095953;28;20455;-73
2022/12/12 09:20:13;;;;;;;36.57;23.00;;;-1.80;88.30;;;-1.97;79.17;97478.41;5095059;28;20470;-73
2022/12/12 09:22:41;;;;;;;29.83;20.13;;;-1.60;85.40;;;-1.88;78.39;97486.28;5103193;28;20465;-74
2022/12/12 09:25:09;;;;;;;31.60;19.80;;;-1.50;83.00;;;-1.85;77.99;97469.28;5091445;28;21112;-74
2022/12/12 09:27:38;;;;;;;33.30;20.07;;;-1.30;81.80;;;-1.77;77.07;97477.28;5086241;28;20988;-75
2022/12/12 09:30:07;;;;;;;35.37;20.47;;;-1.20;80.30;;;-1.77;76.65;97484.41;5089559;28;20488;-73
2022/12/12 09:32:34;;;;;;;26.80;17.70;;;-1.10;79.10;;;-1.98;75.96;97493.44;5072871;28;20452;-75
2022/12/12 09:35:02;;;;;;;32.63;19.37;;;-1.30;78.00;;;-1.90;75.75;97490.06;5074512;28;20483;-75
2022/12/12 09:37:29;;;;;;;29.33;19.70;;;-1.40;78.10;;;-1.77;76.44;97485.25;5072280;28;20462;-73
2022/12/12 09:39:57;;;;;;;34.77;20.00;;;-1.30;78.60;;;-1.58;76.00;97478.16;5081822;28;20855;-74
2022/12/12 09:42:29;;;;;;;34.07;19.83;;;-1.10;78.70;;;-1.56;76.34;97478.84;5076552;28;20493;-72
2022/12/12 09:45:03;;;;;;;34.17;20.97;;;-1.00;78.30;;;-1.53;75.98;97483.81;5079288;28;20462;-75
2022/12/12 09:47:36;;;;;;;33.20;20.30;;;-1.00;78.40;;;-1.36;75.95;97481.31;5084638;28;20493;-73
2022/12/12 09:50:15;;;;;;;36.10;25.67;;;-0.90;78.50;;;-1.62;76.08;97487.38;5076072;28;20493;-75
2022/12/12 09:52:43;;;;;;;31.50;20.13;;;-1.00;77.80;;;-1.86;75.88;97489.63;5093910;28;20207;-74
2022/12/12 09:55:31;;;;;;;27.47;19.63;;;-1.20;77.50;;;-1.77;76.29;97490.53;5069892;28;22127;-73
2022/12/12 09:58:03;;;;;;;33.57;22.27;;;-1.20;77.90;;;-1.72;76.70;97485.63;5075891;28;20497;-72
2022/12/12 10:00:36;;;;;;;29.70;20.87;;;-1.20;78.20;;;-1.79;75.64;97487.22;5076328;28;20457;-74
2022/12/12 10:03:27;;;;;;;29.97;20.10;;;-1.30;78.30;;;-1.76;76.18;97486.91;5081934;28;20496;-74
2022/12/12 10:06:04;;;;;;;35.73;21.97;;;-1.30;78.50;;;-1.87;75.91;97463.31;5082181;28;20465;-74
2022/12/12 10:08:42;;;;;;;30.90;21.13;;;-1.30;78.30;;;-1.85;76.12;97488.63;5090565;28;20494;-73
2022/12/12 10:13:56;;;;;;;30.00;24.48;;;-1.20;77.80;;;-1.68;74.40;97482.69;5073579;28;20444;-74
2022/12/12 10:16:26;;;;;;;27.37;20.27;;;-1.20;77.10;;;-1.72;74.26;97501.53;5079804;28;20221;-79
2022/12/12 10:18:59;;;;;;;31.90;21.87;;;-1.10;76.90;;;-1.69;74.07;97488.97;5072887;28;20461;-73
2022/12/12 10:21:30;;;;;;;30.60;21.30;;;-1.20;76.70;;;-1.97;74.98;97478.41;5073283;28;20466;-73
2022/12/12 10:24:04;;;;;;;33.83;23.13;;;-1.20;76.70;;;-1.65;74.95;97493.81;5069962;28;20460;-75
2022/12/12 10:26:32;;;;;;;34.07;20.43;;;-1.20;76.90;;;-2.86;73.92;97280.50;5070632;28;20454;-75
2022/12/12 10:29:09;;;;;;;33.23;22.00;;;-1.10;77.00;;;-1.65;74.16;97451.44;5069660;28;20470;-75
2022/12/12 10:31:48;;;;;;;30.97;20.00;;;-0.90;76.80;;;-1.43;73.54;97486.38;5073301;28;20460;-74
2022/12/12 10:34:36;;;;;;;35.23;22.47;;;-0.80;76.20;;;-1.25;73.53;97489.03;5071377;28;20461;-74